Terminal Aerodrome Forecast
Issued by NWS

Home | Current Version | Previous Version | Text Only | Print | Product List | Glossary On
Versions: 1 2 3 4 5 6 7 8 9 10 11 12
000
FTUS44 KBMX 011100 RRA
TAFMGM
TAF
KMGM 011140Z 0112/0212 09009KT P6SM OVC150
     FM011500 13008KT P6SM OVC040
     FM011900 15008KT 3SM -RA BR OVC007
     FM020600 25009KT 5SM -RA BR OVC015
     FM021000 28011KT P6SM OVC025=

USA.gov is the U.S. government's official web portal to all federal, state and local government web resources and services.